createdAt,value
2022-07-29T00:01:02.634Z,79.26
2022-07-29T00:03:30.996Z,77.11
2022-07-29T00:05:57.673Z,76.33
2022-07-29T00:08:24.359Z,74.71
2022-07-29T00:10:52.164Z,73.96
2022-07-29T00:13:18.773Z,75.06
2022-07-29T00:15:59.084Z,74.21
2022-07-29T00:18:31.643Z,75.59
2022-07-29T00:20:58.315Z,76.54
2022-07-29T00:23:25.023Z,78.51
2022-07-29T00:25:51.656Z,79.83
2022-07-29T00:28:21.065Z,81.89
2022-07-29T00:30:48.044Z,82.56
2022-07-29T00:33:14.787Z,83.39
2022-07-29T00:35:41.420Z,83.33
2022-07-29T00:38:08.118Z,83.72
2022-07-29T00:40:34.884Z,84.79
2022-07-29T00:43:01.492Z,85.37
2022-07-29T00:45:28.238Z,84.83
2022-07-29T00:47:54.891Z,84.72
2022-07-29T00:50:21.893Z,85.37
2022-07-29T00:52:48.544Z,85.44
2022-07-29T00:55:16.060Z,85.18
2022-07-29T00:57:43.177Z,84.41
2022-07-29T01:00:12.833Z,84.80
2022-07-29T01:02:39.535Z,84.97
2022-07-29T01:05:06.537Z,84.07
2022-07-29T01:07:34.372Z,83.05
2022-07-29T01:10:00.979Z,82.23
2022-07-29T01:12:28.227Z,82.83
2022-07-29T01:14:55.209Z,84.25
2022-07-29T01:17:40.373Z,83.92
2022-07-29T01:20:56.625Z,84.49
2022-07-29T01:23:41.130Z,84.81
2022-07-29T01:26:16.610Z,85.11
2022-07-29T01:29:11.919Z,84.85
2022-07-29T01:31:59.578Z,83.72
2022-07-29T01:34:42.748Z,83.00
2022-07-29T01:37:29.554Z,83.08
2022-07-29T01:39:57.308Z,84.35
2022-07-29T01:42:59.212Z,85.06
2022-07-29T01:45:30.753Z,84.38
2022-07-29T01:48:07.924Z,83.93
2022-07-29T01:50:36.071Z,82.84
2022-07-29T01:53:06.546Z,83.65
2022-07-29T01:55:36.209Z,84.00
2022-07-29T01:58:04.338Z,84.53
2022-07-29T02:00:31.121Z,84.54
2022-07-29T02:02:57.840Z,84.53
2022-07-29T02:05:24.690Z,83.78
2022-07-29T02:07:51.496Z,83.63
2022-07-29T02:10:19.637Z,83.64
2022-07-29T02:12:52.672Z,85.19
2022-07-29T02:15:19.711Z,85.77
2022-07-29T02:17:55.654Z,85.78
2022-07-29T02:20:23.316Z,85.01
2022-07-29T02:22:49.981Z,84.30
2022-07-29T02:25:16.632Z,85.31
2022-07-29T02:27:44.263Z,86.37
2022-07-29T02:30:11.070Z,86.53
2022-07-29T02:32:38.557Z,86.38
2022-07-29T02:35:07.920Z,85.24
2022-07-29T02:37:34.591Z,86.45
2022-07-29T02:40:01.651Z,88.85
2022-07-29T02:42:28.468Z,90.00
2022-07-29T02:44:56.542Z,88.96
2022-07-29T02:47:41.373Z,86.65
2022-07-29T02:50:10.591Z,86.19
2022-07-29T02:52:46.400Z,86.87
2022-07-29T02:55:33.572Z,86.92
2022-07-29T02:58:14.622Z,86.89
2022-07-29T03:00:41.396Z,87.54
2022-07-29T03:03:10.037Z,87.42
2022-07-29T03:05:36.917Z,85.78
2022-07-29T03:08:06.120Z,84.43
2022-07-29T03:10:32.881Z,84.07
2022-07-29T03:13:00.123Z,85.97
2022-07-29T03:15:26.831Z,86.81
2022-07-29T03:17:53.507Z,87.70
2022-07-29T03:20:20.190Z,86.68
2022-07-29T03:22:46.897Z,86.13
2022-07-29T03:25:17.820Z,86.17
2022-07-29T03:27:44.423Z,86.89
2022-07-29T03:30:11.828Z,86.61
2022-07-29T03:32:38.606Z,85.50
2022-07-29T03:35:07.604Z,86.91
2022-07-29T03:37:34.255Z,88.18
2022-07-29T03:40:01.611Z,88.09
2022-07-29T03:42:34.189Z,87.77
2022-07-29T03:45:06.633Z,87.63
2022-07-29T03:47:49.557Z,86.70
2022-07-29T03:50:17.228Z,87.79
2022-07-29T03:52:45.497Z,86.60
2022-07-29T03:55:12.302Z,86.07
2022-07-29T03:57:39.141Z,86.65
2022-07-29T04:00:06.174Z,87.59
2022-07-29T04:02:33.522Z,88.42
2022-07-29T04:05:00.350Z,88.35
2022-07-29T04:07:27.150Z,87.25
2022-07-29T04:09:53.798Z,86.27
2022-07-29T04:12:20.493Z,85.72
2022-07-29T04:14:47.243Z,86.13
2022-07-29T04:17:14.020Z,85.68
2022-07-29T04:19:40.616Z,86.39
2022-07-29T04:22:07.390Z,86.10
2022-07-29T04:24:35.294Z,84.38
2022-07-29T04:27:02.380Z,84.08
2022-07-29T04:29:29.026Z,84.69
2022-07-29T04:31:55.683Z,84.85
2022-07-29T04:34:22.435Z,83.74
2022-07-29T04:36:49.159Z,84.74
2022-07-29T04:39:20.710Z,85.04
2022-07-29T04:41:49.705Z,84.48
2022-07-29T04:44:19.003Z,84.15
2022-07-29T04:46:46.129Z,84.59
2022-07-29T04:49:13.457Z,85.16
2022-07-29T04:51:40.195Z,83.96
2022-07-29T04:54:06.981Z,83.41
2022-07-29T04:56:34.454Z,83.23
2022-07-29T04:59:01.149Z,84.15
2022-07-29T05:01:27.919Z,84.69
2022-07-29T05:03:59.896Z,84.24
2022-07-29T05:06:27.169Z,84.34
2022-07-29T05:08:53.887Z,82.89
2022-07-29T05:11:22.429Z,83.23
2022-07-29T05:13:50.833Z,83.21
2022-07-29T05:16:17.616Z,83.67
2022-07-29T05:18:44.430Z,85.29
2022-07-29T05:21:11.129Z,84.11
2022-07-29T05:23:37.797Z,82.42
2022-07-29T05:26:04.441Z,84.35
2022-07-29T05:28:34.806Z,81.91
2022-07-29T05:31:01.720Z,80.90
2022-07-29T05:33:35.606Z,82.13
2022-07-29T05:36:05.005Z,83.91
2022-07-29T05:38:31.778Z,83.61
2022-07-29T05:40:59.403Z,83.39
2022-07-29T05:43:28.385Z,83.82
2022-07-29T05:45:55.186Z,83.89
2022-07-29T05:48:23.363Z,84.21
2022-07-29T05:50:50.071Z,85.56
2022-07-29T05:53:19.566Z,84.18
2022-07-29T05:55:49.262Z,85.30
2022-07-29T05:58:15.939Z,83.06
2022-07-29T06:00:42.977Z,83.61
2022-07-29T06:03:09.728Z,84.43
2022-07-29T06:05:37.414Z,84.26
2022-07-29T06:08:04.245Z,85.75
2022-07-29T06:10:30.989Z,85.40
2022-07-29T06:12:59.187Z,84.32
2022-07-29T06:15:26.009Z,85.36
2022-07-29T06:17:59.018Z,84.19
2022-07-29T06:20:28.677Z,83.72
2022-07-29T06:22:55.395Z,82.95
2022-07-29T06:25:22.284Z,81.67
2022-07-29T06:27:48.954Z,82.46
2022-07-29T06:30:15.650Z,83.02
2022-07-29T06:32:43.415Z,81.81
2022-07-29T06:35:37.996Z,81.30
2022-07-29T06:37:59.597Z,81.88
2022-07-29T06:40:27.296Z,80.45
2022-07-29T06:42:55.963Z,79.99
2022-07-29T06:45:22.704Z,81.44
2022-07-29T06:47:49.762Z,79.49
2022-07-29T06:50:16.479Z,80.33
2022-07-29T06:52:43.487Z,76.62
2022-07-29T06:55:10.526Z,76.87
2022-07-29T06:57:54.344Z,78.83
2022-07-29T07:00:21.048Z,77.56
2022-07-29T07:02:47.715Z,76.30
2022-07-29T07:05:14.568Z,77.42
2022-07-29T07:07:41.285Z,77.77
2022-07-29T07:10:08.353Z,77.39
2022-07-29T07:12:35.029Z,78.21
2022-07-29T07:15:01.748Z,78.00
2022-07-29T07:17:28.441Z,76.97
2022-07-29T07:19:55.181Z,78.75
2022-07-29T07:22:22.365Z,74.69
2022-07-29T07:24:49.174Z,73.47
2022-07-29T07:27:15.849Z,70.77
2022-07-29T07:29:44.340Z,71.33
2022-07-29T07:32:11.278Z,69.68
2022-07-29T07:34:37.951Z,67.02
2022-07-29T07:37:04.533Z,65.95
2022-07-29T07:39:31.167Z,67.26
2022-07-29T07:41:57.835Z,61.83
2022-07-29T07:44:25.469Z,65.16
2022-07-29T07:46:52.264Z,62.08
2022-07-29T07:49:19.651Z,58.39
2022-07-29T07:51:50.621Z,57.44
2022-07-29T07:54:19.151Z,60.24
2022-07-29T07:56:47.766Z,58.83
2022-07-29T07:59:17.601Z,55.23
2022-07-29T08:01:55.097Z,54.99
2022-07-29T08:04:27.314Z,60.76
2022-07-29T08:06:55.728Z,55.63
2022-07-29T08:09:29.134Z,59.34
2022-07-29T08:11:57.643Z,58.37
2022-07-29T08:14:24.725Z,56.33
2022-07-29T08:16:51.444Z,54.38
2022-07-29T08:19:18.095Z,55.88
2022-07-29T08:21:44.804Z,50.45
2022-07-29T08:24:11.604Z,52.66
2022-07-29T08:26:38.286Z,52.59
2022-07-29T08:29:05.254Z,50.23
2022-07-29T08:31:32.038Z,50.00
2022-07-29T08:33:59.006Z,50.56
2022-07-29T08:36:25.771Z,49.37
2022-07-29T08:38:52.602Z,49.67
2022-07-29T08:41:20.004Z,46.12
2022-07-29T08:43:47.795Z,46.74
2022-07-29T08:46:14.455Z,48.30
2022-07-29T08:48:41.930Z,50.03
2022-07-29T08:51:08.839Z,51.69
2022-07-29T08:53:37.211Z,50.85
2022-07-29T08:56:03.946Z,51.75
2022-07-29T08:58:33.177Z,51.95
2022-07-29T09:01:03.845Z,50.71
2022-07-29T09:03:33.966Z,49.59
2022-07-29T09:06:00.825Z,48.33
2022-07-29T09:08:31.004Z,49.61
2022-07-29T09:10:57.675Z,48.24
2022-07-29T09:13:24.368Z,47.65
2022-07-29T09:15:50.993Z,47.18
2022-07-29T09:18:41.344Z,46.53
2022-07-29T09:21:09.317Z,45.59
2022-07-29T09:23:35.984Z,48.08
2022-07-29T09:26:06.106Z,44.14
2022-07-29T09:28:32.762Z,46.48
2022-07-29T09:30:59.506Z,46.06
2022-07-29T09:33:32.793Z,47.48
2022-07-29T09:36:09.563Z,45.50
2022-07-29T09:38:37.986Z,44.90
2022-07-29T09:41:05.880Z,41.53
2022-07-29T09:43:33.261Z,42.10
2022-07-29T09:46:13.278Z,43.72
2022-07-29T09:48:40.087Z,44.18
2022-07-29T09:51:06.934Z,44.66
2022-07-29T09:53:37.172Z,44.59
2022-07-29T09:56:05.273Z,42.78
2022-07-29T09:58:32.058Z,44.51
2022-07-29T10:00:58.811Z,45.93
2022-07-29T10:03:25.722Z,43.96
2022-07-29T10:06:18.828Z,48.22
2022-07-29T10:08:45.539Z,42.97
2022-07-29T10:11:12.931Z,42.36
2022-07-29T10:13:39.825Z,45.29
2022-07-29T10:16:07.036Z,44.86
2022-07-29T10:18:33.912Z,46.15
2022-07-29T10:21:00.883Z,45.15
2022-07-29T10:23:28.356Z,46.26
2022-07-29T10:25:55.274Z,45.44
2022-07-29T10:28:21.974Z,44.00
2022-07-29T10:30:50.818Z,46.41
2022-07-29T10:34:07.845Z,42.46
2022-07-29T10:36:39.958Z,41.21
2022-07-29T10:39:25.886Z,42.79
2022-07-29T10:42:12.629Z,43.59
2022-07-29T10:44:42.946Z,45.62
2022-07-29T10:47:09.717Z,46.70
2022-07-29T10:49:36.616Z,45.19
2022-07-29T10:52:10.765Z,43.64
2022-07-29T10:54:44.810Z,44.31
2022-07-29T10:57:53.042Z,45.72
2022-07-29T11:00:28.199Z,44.34
2022-07-29T11:02:55.315Z,46.37
2022-07-29T11:05:22.070Z,46.37
2022-07-29T11:08:20.157Z,45.35
2022-07-29T11:10:51.998Z,44.76
2022-07-29T11:13:44.552Z,44.57
2022-07-29T11:16:13.566Z,47.27
2022-07-29T11:19:14.019Z,43.84
2022-07-29T11:21:53.786Z,45.68
2022-07-29T11:24:28.805Z,45.53
2022-07-29T11:27:20.100Z,47.42
2022-07-29T11:29:53.804Z,44.84
2022-07-29T11:32:24.236Z,43.88
2022-07-29T11:35:17.107Z,42.33
2022-07-29T11:37:52.161Z,40.43
2022-07-29T11:40:21.894Z,45.58
2022-07-29T11:42:48.891Z,44.95
2022-07-29T11:45:42.877Z,44.40
2022-07-29T11:48:29.388Z,42.25
2022-07-29T11:50:53.534Z,43.61
2022-07-29T11:53:20.240Z,44.48
2022-07-29T11:55:51.356Z,43.60
2022-07-29T11:58:22.780Z,45.18
2022-07-29T12:00:52.031Z,45.84
2022-07-29T12:06:15.489Z,44.53
2022-07-29T12:07:02.500Z,45.63
2022-07-29T12:08:45.225Z,45.37
2022-07-29T12:11:21.627Z,44.78
2022-07-29T12:13:49.290Z,47.00
2022-07-29T12:16:16.371Z,46.21
2022-07-29T12:19:02.108Z,45.80
2022-07-29T12:21:31.027Z,45.78
2022-07-29T12:24:04.797Z,42.42
2022-07-29T12:26:35.895Z,43.26
2022-07-29T12:29:03.303Z,40.05
2022-07-29T12:31:43.256Z,41.75
2022-07-29T12:34:14.718Z,44.47
2022-07-29T12:36:44.824Z,43.99
2022-07-29T12:39:11.639Z,41.19
2022-07-29T12:41:38.395Z,44.21
2022-07-29T12:44:05.324Z,44.46
2022-07-29T12:46:32.033Z,43.76
2022-07-29T12:48:58.760Z,45.97
2022-07-29T12:51:32.536Z,41.12
2022-07-29T12:54:06.997Z,44.83
2022-07-29T12:56:44.117Z,41.07
2022-07-29T12:59:22.680Z,42.64
2022-07-29T13:01:50.788Z,41.16
2022-07-29T13:04:32.334Z,40.35
2022-07-29T13:07:02.059Z,41.01
2022-07-29T13:09:46.848Z,38.58
2022-07-29T13:12:14.168Z,37.98
2022-07-29T13:14:45.529Z,40.80
2022-07-29T13:17:13.974Z,45.78
2022-07-29T13:19:40.430Z,44.11
2022-07-29T13:22:08.333Z,41.76
2022-07-29T13:24:35.145Z,39.69
2022-07-29T13:27:01.877Z,42.31
2022-07-29T13:29:32.181Z,40.87
2022-07-29T13:31:59.246Z,40.25
2022-07-29T13:34:26.327Z,39.97
2022-07-29T13:36:52.975Z,41.87
2022-07-29T13:39:19.665Z,39.26
2022-07-29T13:41:46.764Z,42.00
2022-07-29T13:44:13.478Z,41.68
2022-07-29T13:46:40.247Z,42.31
2022-07-29T13:49:07.008Z,43.10
2022-07-29T13:51:33.781Z,42.40
2022-07-29T13:54:00.368Z,42.58
2022-07-29T13:56:28.604Z,44.55
2022-07-29T13:58:55.225Z,43.85
2022-07-29T14:01:21.906Z,43.86
2022-07-29T14:03:48.546Z,43.80
2022-07-29T14:06:15.205Z,45.58
2022-07-29T14:08:41.946Z,45.88
2022-07-29T14:11:08.627Z,48.72
2022-07-29T14:13:35.767Z,48.37
2022-07-29T14:16:02.528Z,52.12
2022-07-29T14:18:29.148Z,56.74
2022-07-29T14:20:55.751Z,59.35
2022-07-29T14:23:23.481Z,59.77
2022-07-29T14:25:50.238Z,60.73
2022-07-29T14:28:16.971Z,60.46
2022-07-29T14:30:43.649Z,63.03
2022-07-29T14:33:11.367Z,64.74
2022-07-29T14:35:37.969Z,64.86
2022-07-29T14:38:04.623Z,62.90
2022-07-29T14:40:31.275Z,58.04
2022-07-29T14:42:57.989Z,55.06
2022-07-29T14:45:24.629Z,51.48
2022-07-29T14:47:51.257Z,52.92
2022-07-29T14:50:31.386Z,53.06
2022-07-29T14:52:58.284Z,54.82
2022-07-29T14:55:24.916Z,56.05
2022-07-29T14:57:51.509Z,54.81
2022-07-29T15:00:18.305Z,54.75
2022-07-29T15:03:02.225Z,56.83
2022-07-29T15:05:30.011Z,55.82
2022-07-29T15:07:56.699Z,57.77
2022-07-29T15:13:13.354Z,54.24
2022-07-29T15:15:40.004Z,52.78
2022-07-29T15:18:06.605Z,56.41
2022-07-29T15:20:33.281Z,55.19
2022-07-29T15:22:59.969Z,53.81
2022-07-29T15:25:28.223Z,54.25
2022-07-29T15:28:00.574Z,52.08
2022-07-29T15:30:32.951Z,50.10
2022-07-29T15:33:03.752Z,49.26
2022-07-29T15:35:30.463Z,49.65
2022-07-29T15:37:57.087Z,48.65
2022-07-29T15:40:23.695Z,50.24
2022-07-29T15:42:50.771Z,49.83
2022-07-29T15:45:20.426Z,48.34
2022-07-29T15:47:47.041Z,50.33
2022-07-29T15:50:13.808Z,49.22
2022-07-29T15:52:40.529Z,48.86
2022-07-29T15:55:09.301Z,50.71
2022-07-29T15:57:36.204Z,52.84
2022-07-29T16:00:04.870Z,49.95
2022-07-29T16:02:31.673Z,49.52
2022-07-29T16:04:58.415Z,49.94
2022-07-29T16:07:25.466Z,48.78
2022-07-29T16:09:58.117Z,51.58
2022-07-29T16:12:25.100Z,52.57
2022-07-29T16:14:51.831Z,49.35
2022-07-29T16:17:18.730Z,49.02
2022-07-29T16:19:45.531Z,52.19
2022-07-29T16:22:12.312Z,51.29
2022-07-29T16:24:39.344Z,50.22
2022-07-29T16:27:06.089Z,50.98
2022-07-29T16:29:33.149Z,52.10
2022-07-29T16:32:01.321Z,50.89
2022-07-29T16:34:28.155Z,51.48
2022-07-29T16:36:54.813Z,51.89
2022-07-29T16:39:21.845Z,51.14
2022-07-29T16:41:48.496Z,51.56
2022-07-29T16:44:15.290Z,51.23
2022-07-29T16:46:44.555Z,51.67
2022-07-29T16:49:11.313Z,51.75
2022-07-29T16:51:39.066Z,51.38
2022-07-29T16:54:06.102Z,51.77
2022-07-29T16:56:33.912Z,52.68
2022-07-29T16:59:00.530Z,52.53
2022-07-29T17:01:27.836Z,52.79
2022-07-29T17:03:58.266Z,52.29
2022-07-29T17:06:26.749Z,51.24
2022-07-29T17:08:53.446Z,52.60
2022-07-29T17:11:20.394Z,53.46
2022-07-29T17:13:47.283Z,54.14
2022-07-29T17:16:13.981Z,54.36
2022-07-29T17:18:40.738Z,54.53
2022-07-29T17:21:07.420Z,53.60
2022-07-29T17:23:34.062Z,54.55
2022-07-29T17:26:00.712Z,53.83
2022-07-29T17:28:27.407Z,54.78
2022-07-29T17:30:54.052Z,52.56
2022-07-29T17:33:23.138Z,51.55
2022-07-29T17:35:49.804Z,51.06
2022-07-29T17:38:16.485Z,51.06
2022-07-29T17:40:43.309Z,50.00
2022-07-29T17:43:10.327Z,49.47
2022-07-29T17:45:50.028Z,49.79
2022-07-29T17:48:17.727Z,49.43
2022-07-29T17:50:44.373Z,48.90
2022-07-29T17:53:16.275Z,50.25
2022-07-29T17:55:46.574Z,49.24
2022-07-29T17:58:13.141Z,49.42
2022-07-29T18:00:39.881Z,49.94
2022-07-29T18:03:06.910Z,48.99
2022-07-29T18:05:33.778Z,50.49
2022-07-29T18:08:00.853Z,50.13
2022-07-29T18:10:28.185Z,51.07
2022-07-29T18:12:54.839Z,50.11
2022-07-29T18:15:21.599Z,49.18
2022-07-29T18:17:56.666Z,50.00
2022-07-29T18:20:28.637Z,49.45
2022-07-29T18:22:55.343Z,49.17
2022-07-29T18:25:25.219Z,48.98
2022-07-29T18:27:51.825Z,49.91
2022-07-29T18:30:18.615Z,48.76
2022-07-29T18:33:05.021Z,49.43
2022-07-29T18:35:32.273Z,49.78
2022-07-29T18:38:01.866Z,50.19
2022-07-29T18:40:30.139Z,49.24
2022-07-29T18:42:56.761Z,49.56
2022-07-29T18:45:28.364Z,50.72
2022-07-29T18:47:56.451Z,50.88
2022-07-29T18:50:28.257Z,51.17
2022-07-29T18:52:55.733Z,51.51
2022-07-29T18:55:23.702Z,51.95
2022-07-29T18:57:54.117Z,52.01
2022-07-29T19:00:24.116Z,51.85
2022-07-29T19:02:51.000Z,52.12
2022-07-29T19:06:13.632Z,53.04
2022-07-29T19:08:40.320Z,52.96
2022-07-29T19:11:07.788Z,53.91
2022-07-29T19:13:34.378Z,54.25
2022-07-29T19:16:01.048Z,55.09
2022-07-29T19:18:27.728Z,54.48
2022-07-29T19:20:54.515Z,54.89
2022-07-29T19:23:21.099Z,54.76
2022-07-29T19:25:53.106Z,55.21
2022-07-29T19:28:20.598Z,55.43
2022-07-29T19:30:47.230Z,55.77
2022-07-29T19:33:13.946Z,55.19
2022-07-29T19:35:40.580Z,55.98
2022-07-29T19:38:07.234Z,56.85
2022-07-29T19:40:34.404Z,56.57
2022-07-29T19:43:01.117Z,57.14
2022-07-29T19:45:27.873Z,58.39
2022-07-29T19:47:59.046Z,58.41
2022-07-29T19:50:27.567Z,58.69
2022-07-29T19:52:54.329Z,59.65
2022-07-29T19:55:21.088Z,59.38
2022-07-29T19:57:48.642Z,59.97
2022-07-29T20:00:15.547Z,59.25
2022-07-29T20:02:42.193Z,59.12
2022-07-29T20:05:09.955Z,60.14
2022-07-29T20:07:37.010Z,61.26
2022-07-29T20:10:04.732Z,61.74
2022-07-29T20:12:31.419Z,61.77
2022-07-29T20:14:58.192Z,61.68
2022-07-29T20:17:24.872Z,62.04
2022-07-29T20:19:51.743Z,63.36
2022-07-29T20:22:21.058Z,63.39
2022-07-29T20:24:48.208Z,62.71
2022-07-29T20:27:15.071Z,64.28
2022-07-29T20:29:41.799Z,64.61
2022-07-29T20:32:08.542Z,64.79
2022-07-29T20:34:35.383Z,65.46
2022-07-29T20:37:02.767Z,65.92
2022-07-29T20:39:29.685Z,63.76
2022-07-29T20:41:56.343Z,65.04
2022-07-29T20:44:22.986Z,66.20
2022-07-29T20:46:49.688Z,66.36
2022-07-29T20:49:16.388Z,67.45
2022-07-29T20:51:43.660Z,65.85
2022-07-29T20:54:11.243Z,67.13
2022-07-29T20:56:37.894Z,67.41
2022-07-29T20:59:04.670Z,68.40
2022-07-29T21:01:31.356Z,69.30
2022-07-29T21:03:58.145Z,68.47
2022-07-29T21:06:24.854Z,69.85
2022-07-29T21:08:51.429Z,72.09
2022-07-29T21:11:18.135Z,73.93
2022-07-29T21:14:04.654Z,74.59
2022-07-29T21:16:31.475Z,75.70
2022-07-29T21:18:58.111Z,76.50
2022-07-29T21:21:25.182Z,77.03
2022-07-29T21:23:51.817Z,77.55
2022-07-29T21:26:19.165Z,77.96
2022-07-29T21:28:45.887Z,78.25
2022-07-29T21:31:17.121Z,79.09
2022-07-29T21:33:46.668Z,80.00
2022-07-29T21:36:46.841Z,80.35
2022-07-29T21:39:00.272Z,81.06
2022-07-29T21:41:27.043Z,81.13
2022-07-29T21:43:54.064Z,81.71
2022-07-29T21:46:24.409Z,81.94
2022-07-29T21:48:51.741Z,81.64
2022-07-29T21:51:18.397Z,81.03
2022-07-29T21:53:45.033Z,82.12
2022-07-29T21:56:15.019Z,82.14
2022-07-29T21:58:41.999Z,82.32
2022-07-29T22:01:08.630Z,82.13
2022-07-29T22:03:35.373Z,83.18
2022-07-29T22:06:02.027Z,83.19
2022-07-29T22:08:28.678Z,83.78
2022-07-29T22:10:55.360Z,83.84
2022-07-29T22:13:22.028Z,83.81
2022-07-29T22:15:48.695Z,84.21
2022-07-29T22:18:20.748Z,84.37
2022-07-29T22:20:49.105Z,85.90
2022-07-29T22:23:15.781Z,84.67
2022-07-29T22:25:42.506Z,84.25
2022-07-29T22:28:09.091Z,84.02
2022-07-29T22:30:35.793Z,84.31
2022-07-29T22:33:02.494Z,85.23
2022-07-29T22:35:29.270Z,84.91
2022-07-29T22:37:55.937Z,85.15
2022-07-29T22:40:22.631Z,85.49
2022-07-29T22:42:57.462Z,85.64
2022-07-29T22:45:24.168Z,85.57
2022-07-29T22:47:54.653Z,86.05
2022-07-29T22:50:25.902Z,86.74
2022-07-29T22:52:52.564Z,86.30
2022-07-29T22:55:19.251Z,86.76
2022-07-29T22:57:45.888Z,86.38
2022-07-29T23:00:13.039Z,86.39
2022-07-29T23:02:39.687Z,86.64
2022-07-29T23:05:06.814Z,87.33
2022-07-29T23:07:33.470Z,86.72
2022-07-29T23:10:00.219Z,86.77
2022-07-29T23:12:27.068Z,87.05
2022-07-29T23:14:53.646Z,87.86
2022-07-29T23:17:20.373Z,88.58
2022-07-29T23:19:47.398Z,88.22
2022-07-29T23:22:14.098Z,88.36
2022-07-29T23:24:40.780Z,88.12
2022-07-29T23:27:07.597Z,87.57
2022-07-29T23:29:36.793Z,88.31
2022-07-29T23:32:03.759Z,88.24
2022-07-29T23:34:30.375Z,87.51
2022-07-29T23:36:57.106Z,87.52
2022-07-29T23:39:23.969Z,87.82
2022-07-29T23:41:50.709Z,87.47
2022-07-29T23:44:17.298Z,86.74
2022-07-29T23:46:44.052Z,87.02
2022-07-29T23:49:10.717Z,86.53
2022-07-29T23:51:37.380Z,87.14
2022-07-29T23:54:04.130Z,86.42
2022-07-29T23:56:30.804Z,86.87
2022-07-29T23:58:57.485Z,86.70
